METAR Formatted Surface Weather Observation
Issued by NWS

Home | Current Version | Previous Version | Text Only | Print | Product List | Glossary On
Versions: 1 2 3 4 5 6
000
SAUS46 KSGX 080553
MTRSAN
METAR KSAN 080551Z 00000KT 10SM OVC020 19/14 A2995 RMK AO2 SLP142
T01940139 10222 20194 51012



USA.gov is the U.S. government's official web portal to all federal, state and local government web resources and services.